createdAt,value
2023-02-23T00:01:58.603Z,65.25
2023-02-23T00:05:04.315Z,67.00
2023-02-23T00:08:09.920Z,68.75
2023-02-23T00:11:14.146Z,69.75
2023-02-23T00:14:18.940Z,74.50
2023-02-23T00:17:24.844Z,68.50
2023-02-23T00:20:32.697Z,69.50
2023-02-23T00:23:39.038Z,60.75
2023-02-23T00:26:45.544Z,64.25
2023-02-23T00:29:52.730Z,53.75
2023-02-23T00:33:08.783Z,47.25
2023-02-23T00:36:16.832Z,77.75
2023-02-23T00:39:22.592Z,57.75
2023-02-23T00:42:32.489Z,65.50
2023-02-23T00:45:38.763Z,54.00
2023-02-23T00:48:47.229Z,52.50
2023-02-23T00:51:56.894Z,54.50
2023-02-23T00:55:00.479Z,65.75
2023-02-23T00:58:12.672Z,61.00
2023-02-23T01:01:19.639Z,58.25
2023-02-23T01:04:24.718Z,56.00
2023-02-23T01:07:30.804Z,53.00
2023-02-23T01:10:37.001Z,64.25
2023-02-23T01:13:43.321Z,66.50
2023-02-23T01:17:07.625Z,63.00
2023-02-23T01:20:18.240Z,58.00
2023-02-23T01:23:28.663Z,57.00
2023-02-23T01:26:35.272Z,66.25
2023-02-23T01:29:39.593Z,31.50
2023-02-23T01:32:49.205Z,63.25
2023-02-23T01:36:00.763Z,62.75
2023-02-23T01:39:09.849Z,76.00
2023-02-23T01:42:16.776Z,67.00
2023-02-23T01:45:40.808Z,58.50
2023-02-23T01:48:51.341Z,59.50
2023-02-23T01:52:01.783Z,72.25
2023-02-23T01:55:18.233Z,69.50
2023-02-23T01:58:26.065Z,68.75
2023-02-23T02:01:31.093Z,62.75
2023-02-23T02:04:47.050Z,62.75
2023-02-23T02:07:59.230Z,62.25
2023-02-23T02:11:27.713Z,66.25
2023-02-23T02:14:36.243Z,65.25
2023-02-23T02:17:56.558Z,64.50
2023-02-23T02:21:35.330Z,60.25
2023-02-23T02:25:15.930Z,75.00
2023-02-23T02:32:30.692Z,62.75
2023-02-23T02:36:07.604Z,73.00
2023-02-23T02:39:29.113Z,103.67
2023-02-23T02:42:56.388Z,93.67
2023-02-23T02:46:10.210Z,74.25
2023-02-23T02:49:21.942Z,78.25
2023-02-23T02:52:42.920Z,59.75
2023-02-23T02:55:53.050Z,89.67
2023-02-23T02:59:00.866Z,86.50
2023-02-23T03:02:27.692Z,70.75
2023-02-23T03:06:01.456Z,91.00
2023-02-23T03:09:36.224Z,61.75
2023-02-23T03:13:14.918Z,76.25
2023-02-23T03:16:50.980Z,70.00
2023-02-23T03:20:19.205Z,79.25
2023-02-23T03:23:51.494Z,77.00
2023-02-23T03:27:17.006Z,80.50
2023-02-23T03:30:49.987Z,71.25
2023-02-23T03:34:25.657Z,74.00
2023-02-23T03:37:55.624Z,68.75
2023-02-23T03:41:21.705Z,68.75
2023-02-23T03:44:50.850Z,77.50
2023-02-23T03:48:19.665Z,63.25
2023-02-23T03:51:45.840Z,40.25
2023-02-23T03:55:13.093Z,72.00
2023-02-23T03:58:43.531Z,69.50
2023-02-23T04:02:06.937Z,71.75
2023-02-23T04:05:39.069Z,68.50
2023-02-23T04:09:02.658Z,70.75
2023-02-23T04:12:31.951Z,67.25
2023-02-23T04:15:39.312Z,67.25
2023-02-23T04:18:43.996Z,75.50
2023-02-23T04:21:59.535Z,61.50
2023-02-23T04:25:20.059Z,72.50
2023-02-23T04:28:28.020Z,79.00
2023-02-23T04:31:37.380Z,72.50
2023-02-23T04:34:47.797Z,79.50
2023-02-23T04:37:56.776Z,59.75
2023-02-23T04:41:02.239Z,69.25
2023-02-23T04:44:15.767Z,75.50
2023-02-23T04:47:20.805Z,71.75
2023-02-23T04:50:25.042Z,69.25
2023-02-23T04:53:35.133Z,72.00
2023-02-23T04:56:44.833Z,62.75
2023-02-23T04:59:51.000Z,77.25
2023-02-23T05:02:55.541Z,93.67
2023-02-23T05:06:02.422Z,74.50
2023-02-23T05:09:10.267Z,82.50
2023-02-23T05:12:18.685Z,78.00
2023-02-23T05:15:28.468Z,80.67
2023-02-23T05:18:39.370Z,89.33
2023-02-23T05:21:51.603Z,113.00
2023-02-23T05:24:58.526Z,91.33
2023-02-23T05:28:06.330Z,94.00
2023-02-23T05:31:12.033Z,94.67
2023-02-23T05:34:20.164Z,140.75
2023-02-23T05:37:25.134Z,96.33
2023-02-23T05:40:33.042Z,98.67
2023-02-23T05:43:38.507Z,95.00
2023-02-23T05:46:47.002Z,94.67
2023-02-23T05:50:02.153Z,95.33
2023-02-23T05:53:10.584Z,87.00
2023-02-23T05:56:22.273Z,86.67
2023-02-23T05:59:29.363Z,76.50
2023-02-23T06:02:37.225Z,266.25
2023-02-23T06:05:42.356Z,82.33
2023-02-23T06:08:50.054Z,150.00
2023-02-23T06:11:57.458Z,101.67
2023-02-23T06:15:01.633Z,94.67
2023-02-23T06:18:09.469Z,160.50
2023-02-23T06:21:15.085Z,110.67
2023-02-23T06:24:19.337Z,140.00
2023-02-23T06:27:26.030Z,121.33
2023-02-23T06:30:30.288Z,139.00
2023-02-23T06:33:37.039Z,121.67
2023-02-23T06:36:43.386Z,101.67
2023-02-23T06:39:48.029Z,156.67
2023-02-23T06:42:53.548Z,101.33
2023-02-23T06:45:57.315Z,107.00
2023-02-23T06:49:01.988Z,136.67
2023-02-23T06:52:15.855Z,212.50
2023-02-23T06:55:34.215Z,144.00
2023-02-23T06:58:57.940Z,110.67
2023-02-23T07:02:11.380Z,126.33
2023-02-23T07:05:30.450Z,109.33
2023-02-23T07:09:24.428Z,135.67
2023-02-23T07:12:38.243Z,170.25
2023-02-23T07:16:19.266Z,194.00
2023-02-23T07:19:43.505Z,238.75
2023-02-23T07:23:08.790Z,213.00
2023-02-23T07:26:55.937Z,199.00
2023-02-23T07:30:32.646Z,174.50
2023-02-23T07:34:42.493Z,141.67
2023-02-23T07:38:16.778Z,144.33
2023-02-23T07:46:17.496Z,146.33
2023-02-23T07:50:03.539Z,142.67
2023-02-23T07:53:21.773Z,143.67
2023-02-23T07:56:25.875Z,144.33
2023-02-23T07:59:30.547Z,148.67
2023-02-23T08:02:36.066Z,137.00
2023-02-23T08:05:45.831Z,139.33
2023-02-23T08:08:52.659Z,109.00
2023-02-23T08:11:56.928Z,114.33
2023-02-23T08:15:00.877Z,101.67
2023-02-23T08:18:06.803Z,102.00
2023-02-23T08:21:10.835Z,90.67
2023-02-23T08:24:26.868Z,96.67
2023-02-23T08:27:37.024Z,133.00
2023-02-23T08:30:42.980Z,183.50
2023-02-23T08:33:48.525Z,586.67
2023-02-23T08:37:00.436Z,273.75
2023-02-23T08:40:15.603Z,137.33
2023-02-23T08:43:23.509Z,122.00
2023-02-23T08:46:33.444Z,197.75
2023-02-23T08:49:41.510Z,171.25
2023-02-23T08:52:48.846Z,127.33
2023-02-23T08:56:06.552Z,132.00
2023-02-23T08:59:17.832Z,133.33
2023-02-23T09:02:33.357Z,131.33
2023-02-23T09:05:40.516Z,100.00
2023-02-23T09:08:59.230Z,103.33
2023-02-23T09:12:28.122Z,120.33
2023-02-23T09:15:36.114Z,107.33
2023-02-23T09:18:52.013Z,96.00
2023-02-23T09:22:08.022Z,104.67
2023-02-23T09:25:34.631Z,82.25
2023-02-23T09:28:46.441Z,60.50
2023-02-23T09:31:54.032Z,56.25
2023-02-23T09:35:05.723Z,63.75
2023-02-23T09:38:12.808Z,52.50
2023-02-23T09:41:57.392Z,44.00
2023-02-23T09:45:25.072Z,38.00
2023-02-23T09:48:43.657Z,37.00
2023-02-23T09:52:12.087Z,28.25
2023-02-23T09:55:20.406Z,21.00
2023-02-23T09:58:28.833Z,9.50
2023-02-23T10:01:59.807Z,12.50
2023-02-23T10:05:09.990Z,16.00
2023-02-23T10:08:35.839Z,12.50
2023-02-23T10:11:45.511Z,16.00
2023-02-23T10:15:08.194Z,39.75
2023-02-23T10:18:46.586Z,8.50
2023-02-23T10:22:01.395Z,8.25
2023-02-23T10:25:28.142Z,18.00
2023-02-23T10:32:52.173Z,19.75
2023-02-23T10:36:13.185Z,24.50
2023-02-23T10:39:18.377Z,12.50
2023-02-23T10:42:29.137Z,13.25
2023-02-23T10:45:40.680Z,29.25
2023-02-23T10:48:44.699Z,18.75
2023-02-23T10:51:52.076Z,23.75
2023-02-23T10:54:55.897Z,13.00
2023-02-23T10:58:08.430Z,15.25
2023-02-23T11:01:12.449Z,15.00
2023-02-23T11:04:26.217Z,11.25
2023-02-23T11:07:34.057Z,15.50
2023-02-23T11:10:38.323Z,22.75
2023-02-23T11:13:44.803Z,22.75
2023-02-23T11:16:48.751Z,19.75
2023-02-23T11:20:00.688Z,17.00
2023-02-23T11:23:15.011Z,28.00
2023-02-23T11:27:00.974Z,18.00
2023-02-23T11:30:25.241Z,18.00
2023-02-23T11:33:44.119Z,19.75
2023-02-23T11:37:21.301Z,19.00
2023-02-23T11:40:55.125Z,14.75
2023-02-23T11:44:29.673Z,64.75
2023-02-23T11:47:49.384Z,62.50
2023-02-23T11:51:15.308Z,23.50
2023-02-23T11:54:36.174Z,23.50
2023-02-23T11:57:41.980Z,14.00
2023-02-23T12:01:17.181Z,16.00
2023-02-23T12:04:54.707Z,47.50
2023-02-23T12:08:07.226Z,15.00
2023-02-23T12:11:47.700Z,41.50
2023-02-23T12:15:33.304Z,16.50
2023-02-23T12:18:53.241Z,16.75
2023-02-23T12:22:07.768Z,20.00
2023-02-23T12:25:23.598Z,14.50
2023-02-23T12:28:41.017Z,19.00
2023-02-23T12:31:58.935Z,21.25
2023-02-23T12:35:14.213Z,30.25
2023-02-23T12:38:43.407Z,27.25
2023-02-23T12:42:11.744Z,32.25
2023-02-23T12:45:39.659Z,152.33
2023-02-23T12:48:57.216Z,27.50
2023-02-23T12:52:15.829Z,29.75
2023-02-23T12:55:32.238Z,25.75
2023-02-23T12:58:52.890Z,30.25
2023-02-23T13:02:09.911Z,37.75
2023-02-23T13:05:42.092Z,32.25
2023-02-23T13:09:24.121Z,34.00
2023-02-23T13:12:55.983Z,44.00
2023-02-23T13:16:27.605Z,36.25
2023-02-23T13:19:45.966Z,38.25
2023-02-23T13:23:00.395Z,38.75
2023-02-23T13:26:15.937Z,33.50
2023-02-23T13:29:37.215Z,32.00
2023-02-23T13:32:44.107Z,40.75
2023-02-23T13:35:51.037Z,42.00
2023-02-23T13:39:23.012Z,36.25
2023-02-23T13:43:00.426Z,38.50
2023-02-23T13:46:26.758Z,40.50
2023-02-23T13:49:41.678Z,43.00
2023-02-23T13:52:53.565Z,43.75
2023-02-23T13:56:08.500Z,37.50
2023-02-23T13:59:25.491Z,38.50
2023-02-23T14:02:46.711Z,46.00
2023-02-23T14:06:03.190Z,48.00
2023-02-23T14:09:13.102Z,50.00
2023-02-23T14:12:27.487Z,55.25
2023-02-23T14:15:47.843Z,47.75
2023-02-23T14:19:21.698Z,48.75
2023-02-23T14:22:27.177Z,42.25
2023-02-23T14:25:51.744Z,43.75
2023-02-23T14:32:32.720Z,31.75
2023-02-23T14:35:48.473Z,37.50
2023-02-23T14:39:05.683Z,38.50
2023-02-23T14:42:20.363Z,28.00
2023-02-23T14:45:31.024Z,32.00
2023-02-23T14:48:42.236Z,31.75
2023-02-23T14:51:49.907Z,27.50
2023-02-23T14:55:23.677Z,45.25
2023-02-23T14:58:38.782Z,28.00
2023-02-23T15:01:48.105Z,35.00
2023-02-23T15:04:54.360Z,32.00
2023-02-23T15:08:13.489Z,35.00
2023-02-23T15:11:23.287Z,36.50
2023-02-23T15:14:30.147Z,29.75
2023-02-23T15:17:48.644Z,35.25
2023-02-23T15:20:57.288Z,22.50
2023-02-23T15:24:10.988Z,28.50
2023-02-23T15:27:20.026Z,33.50
2023-02-23T15:30:40.909Z,38.00
2023-02-23T15:33:59.454Z,26.00
2023-02-23T15:37:24.293Z,32.75
2023-02-23T15:40:34.937Z,31.50
2023-02-23T15:43:58.605Z,30.25
2023-02-23T15:52:01.420Z,39.00
2023-02-23T15:55:48.423Z,90.25
2023-02-23T15:59:19.046Z,110.67
2023-02-23T16:02:29.420Z,54.25
2023-02-23T16:05:46.976Z,55.75
2023-02-23T16:09:03.727Z,53.50
2023-02-23T16:12:18.006Z,71.00
2023-02-23T16:15:30.298Z,64.50
2023-02-23T16:18:48.024Z,71.50
2023-02-23T16:22:05.688Z,71.25
2023-02-23T16:25:20.184Z,80.75
2023-02-23T16:28:32.808Z,81.75
2023-02-23T16:31:53.821Z,84.50
2023-02-23T16:35:02.377Z,101.67
2023-02-23T16:38:16.791Z,131.00
2023-02-23T16:41:33.974Z,114.33
2023-02-23T16:44:43.847Z,115.33
2023-02-23T16:47:49.385Z,91.00
2023-02-23T16:50:54.983Z,96.00
2023-02-23T16:53:59.189Z,95.00
2023-02-23T16:57:06.211Z,92.50
2023-02-23T17:00:25.949Z,96.00
2023-02-23T17:03:34.202Z,87.75
2023-02-23T17:06:44.389Z,77.75
2023-02-23T17:09:50.812Z,79.25
2023-02-23T17:13:06.124Z,73.75
2023-02-23T17:16:17.298Z,93.00
2023-02-23T17:19:23.636Z,74.25
2023-02-23T17:22:33.685Z,83.25
2023-02-23T17:25:37.823Z,86.50
2023-02-23T17:28:46.479Z,92.50
2023-02-23T17:32:00.269Z,94.25
2023-02-23T17:35:16.025Z,81.00
2023-02-23T17:38:40.301Z,73.50
2023-02-23T17:41:44.454Z,110.67
2023-02-23T17:44:48.002Z,61.25
2023-02-23T17:47:54.855Z,42.00
2023-02-23T17:51:01.094Z,56.00
2023-02-23T17:54:08.635Z,50.00
2023-02-23T17:57:21.211Z,46.00
2023-02-23T18:00:41.112Z,35.00
2023-02-23T18:04:38.092Z,56.00
2023-02-23T18:08:20.375Z,53.50
2023-02-23T18:11:25.773Z,48.75
2023-02-23T18:14:31.317Z,58.75
2023-02-23T18:17:37.356Z,69.50
2023-02-23T18:20:51.099Z,53.75
2023-02-23T18:23:56.424Z,37.25
2023-02-23T18:27:05.449Z,52.00
2023-02-23T18:30:11.746Z,46.00
2023-02-23T18:33:27.397Z,46.75
2023-02-23T18:36:38.685Z,54.50
2023-02-23T18:39:58.103Z,55.75
2023-02-23T18:43:04.434Z,41.25
2023-02-23T18:46:17.354Z,44.50
2023-02-23T18:49:35.505Z,53.75
2023-02-23T18:52:46.245Z,48.25
2023-02-23T18:55:55.247Z,55.50
2023-02-23T18:59:00.825Z,46.00
2023-02-23T19:02:12.182Z,45.00
2023-02-23T19:05:32.188Z,64.75
2023-02-23T19:08:44.026Z,57.00
2023-02-23T19:11:53.720Z,35.00
2023-02-23T19:14:59.030Z,40.50
2023-02-23T19:18:03.912Z,42.25
2023-02-23T19:21:12.965Z,53.25
2023-02-23T19:24:24.561Z,51.25
2023-02-23T19:27:28.669Z,46.75
2023-02-23T19:30:50.658Z,51.50
2023-02-23T19:33:56.842Z,50.75
2023-02-23T19:37:02.780Z,53.25
2023-02-23T19:40:23.930Z,37.50
2023-02-23T19:43:45.842Z,42.25
2023-02-23T19:47:04.493Z,52.75
2023-02-23T19:50:19.214Z,44.00
2023-02-23T19:53:36.858Z,42.50
2023-02-23T19:56:47.513Z,48.25
2023-02-23T19:59:54.158Z,44.75
2023-02-23T20:03:30.989Z,51.25
2023-02-23T20:07:08.959Z,37.25
2023-02-23T20:16:00.283Z,38.75
2023-02-23T20:20:01.395Z,61.75
2023-02-23T20:24:10.392Z,41.25
2023-02-23T20:27:52.174Z,59.50
2023-02-23T20:30:58.772Z,57.50
2023-02-23T20:34:54.785Z,60.50
2023-02-23T20:39:00.099Z,44.00
2023-02-23T20:42:09.825Z,54.00
2023-02-23T20:45:15.504Z,48.75
2023-02-23T20:48:19.926Z,49.25
2023-02-23T20:51:24.044Z,49.50
2023-02-23T20:54:30.389Z,56.50
2023-02-23T20:57:36.301Z,58.75
2023-02-23T21:00:40.401Z,89.50
2023-02-23T21:03:45.097Z,110.67
2023-02-23T21:06:48.799Z,104.33
2023-02-23T21:10:01.057Z,103.67
2023-02-23T21:13:12.865Z,100.67
2023-02-23T21:16:19.546Z,96.00
2023-02-23T21:19:25.031Z,99.33
2023-02-23T21:22:36.789Z,106.00
2023-02-23T21:25:43.821Z,103.33
2023-02-23T21:28:49.201Z,106.67
2023-02-23T21:31:56.547Z,105.33
2023-02-23T21:35:21.843Z,97.00
2023-02-23T21:38:32.842Z,107.50
2023-02-23T21:41:38.820Z,97.75
2023-02-23T21:44:49.555Z,102.00
2023-02-23T21:47:54.300Z,127.33
2023-02-23T21:51:10.292Z,145.33
2023-02-23T21:54:35.908Z,105.33
2023-02-23T21:57:48.915Z,116.00
2023-02-23T22:00:57.596Z,77.25
2023-02-23T22:04:30.430Z,75.00
2023-02-23T22:07:47.457Z,69.75
2023-02-23T22:11:24.436Z,79.00
2023-02-23T22:14:37.565Z,82.25
2023-02-23T22:18:14.319Z,85.50
2023-02-23T22:21:54.230Z,96.75
2023-02-23T22:25:07.653Z,102.33
2023-02-23T22:28:24.835Z,102.25
2023-02-23T22:31:42.912Z,163.00
2023-02-23T22:34:52.207Z,92.00
2023-02-23T22:38:33.550Z,108.00
2023-02-23T22:42:03.335Z,85.75
2023-02-23T22:45:55.523Z,89.50
2023-02-23T22:49:21.006Z,100.33
2023-02-23T22:52:34.867Z,115.67
2023-02-23T22:56:00.755Z,99.67
2023-02-23T22:59:21.797Z,73.25
2023-02-23T23:02:40.496Z,65.00
2023-02-23T23:06:10.870Z,134.67
2023-02-23T23:10:07.162Z,68.25
2023-02-23T23:14:04.051Z,66.75
2023-02-23T23:17:26.334Z,68.75
2023-02-23T23:20:36.298Z,92.25
2023-02-23T23:24:06.515Z,133.00
2023-02-23T23:27:22.923Z,104.25
2023-02-23T23:30:42.501Z,103.67
2023-02-23T23:37:34.561Z,102.67
2023-02-23T23:41:13.074Z,201.00
2023-02-23T23:44:29.872Z,115.67
2023-02-23T23:47:39.114Z,97.75
2023-02-23T23:50:56.551Z,85.00
2023-02-23T23:54:07.121Z,98.67
2023-02-23T23:57:28.525Z,110.33
